Time;durP1;ratioP1;P1;durP2;ratioP2;P2;SDS_P1;SDS_P2;PMS_P1;PMS_P2;Temp;Humidity;BMP_temperature;BMP_pressure;BME280_temperature;BME280_humidity;BME280_pressure;Samples;Min_cycle;Max_cycle;Signal;HPM_P1;HPM_P2
2022/04/21 00:00:09;;;;;;;3.80;2.40;;;;;;;;;;514437;28;1437;-82
2022/04/21 00:00:25;;;;;;;4.65;2.67;;;;;;;;;;512815;28;1510;-82
2022/04/21 00:00:41;;;;;;;3.92;2.67;;;;;;;;;;512935;28;1610;-82
2022/04/21 00:00:57;;;;;;;3.08;2.38;;;;;;;;;;513471;28;1458;-82
2022/04/21 00:01:12;;;;;;;3.50;2.40;;;;;;;;;;514382;28;1544;-83
2022/04/21 00:01:27;;;;;;;4.23;2.40;;;;;;;;;;515395;28;1443;-82
2022/04/21 00:01:43;;;;;;;4.60;2.40;;;;;;;;;;514526;28;1498;-83
2022/04/21 00:01:58;;;;;;;3.97;2.28;;;;;;;;;;512639;28;1763;-83
2022/04/21 00:02:14;;;;;;;3.33;2.30;;;;;;;;;;511243;28;1589;-83
2022/04/21 00:02:29;;;;;;;3.13;2.40;;;;;;;;;;512521;28;1523;-83
2022/04/21 00:02:45;;;;;;;3.17;2.40;;;;;;;;;;512818;28;1493;-83
2022/04/21 00:03:01;;;;;;;3.03;2.40;;;;;;;;;;512615;28;1607;-82
2022/04/21 00:03:16;;;;;;;3.65;2.55;;;;;;;;;;512627;28;1531;-84
2022/04/21 00:03:31;;;;;;;3.97;2.60;;;;;;;;;;512936;28;1492;-83
2022/04/21 00:03:47;;;;;;;3.43;2.40;;;;;;;;;;512911;28;1651;-82
2022/04/21 00:04:04;;;;;;;3.77;2.50;;;;;;;;;;512225;28;1538;-82
2022/04/21 00:04:20;;;;;;;3.13;2.50;;;;;;;;;;512904;28;1850;-83
2022/04/21 00:04:35;;;;;;;2.50;2.30;;;;;;;;;;512736;28;1972;-82
2022/04/21 00:04:51;;;;;;;2.90;2.13;;;;;;;;;;514061;28;1603;-83
2022/04/21 00:05:10;;;;;;;3.80;2.30;;;;;;;;;;512913;28;1833;-82
2022/04/21 00:05:26;;;;;;;3.38;2.40;;;;;;;;;;513610;28;1634;-83
2022/04/21 00:05:41;;;;;;;3.45;2.45;;;;;;;;;;514548;28;1647;-82
2022/04/21 00:05:57;;;;;;;3.13;2.30;;;;;;;;;;514634;28;1540;-82
2022/04/21 00:06:13;;;;;;;4.00;2.40;;;;;;;;;;514751;28;1628;-82
2022/04/21 00:06:28;;;;;;;4.05;2.30;;;;;;;;;;514642;28;1742;-82
2022/04/21 00:06:44;;;;;;;3.43;2.23;;;;;;;;;;514666;28;1678;-82
2022/04/21 00:07:00;;;;;;;5.22;2.40;;;;;;;;;;515735;28;1519;-82
2022/04/21 00:07:15;;;;;;;4.50;2.50;;;;;;;;;;514883;28;1543;-82
2022/04/21 00:07:30;;;;;;;3.97;2.40;;;;;;;;;;514584;28;1742;-83
2022/04/21 00:07:48;;;;;;;4.67;2.40;;;;;;;;;;514776;28;1468;-82
2022/04/21 00:08:04;;;;;;;3.45;2.47;;;;;;;;;;514861;28;1616;-82
2022/04/21 00:08:20;;;;;;;4.00;2.50;;;;;;;;;;514439;28;1430;-82
2022/04/21 00:08:35;;;;;;;3.90;2.47;;;;;;;;;;514689;28;1515;-82
2022/04/21 00:08:50;;;;;;;2.80;2.40;;;;;;;;;;514316;28;1634;-82
2022/04/21 00:09:06;;;;;;;3.43;2.50;;;;;;;;;;515815;28;1468;-82
2022/04/21 00:09:22;;;;;;;3.70;2.40;;;;;;;;;;514608;28;1623;-82
2022/04/21 00:09:37;;;;;;;4.00;2.50;;;;;;;;;;514960;28;1478;-83
2022/04/21 00:09:52;;;;;;;3.90;2.50;;;;;;;;;;512751;28;1814;-82
2022/04/21 00:10:08;;;;;;;2.87;2.50;;;;;;;;;;513059;28;1426;-82
2022/04/21 00:10:26;;;;;;;5.45;2.50;;;;;;;;;;512616;28;1566;-83
2022/04/21 00:10:41;;;;;;;5.47;2.50;;;;;;;;;;510673;28;1505;-83
2022/04/21 00:10:56;;;;;;;3.10;2.40;;;;;;;;;;511690;28;1581;-82
2022/04/21 00:11:12;;;;;;;3.80;2.43;;;;;;;;;;513161;28;1570;-82
2022/04/21 00:11:29;;;;;;;4.03;2.50;;;;;;;;;;514749;28;1976;-82
2022/04/21 00:11:45;;;;;;;4.30;2.38;;;;;;;;;;514568;28;1926;-82
2022/04/21 00:12:00;;;;;;;5.07;2.40;;;;;;;;;;515914;28;1392;-83
2022/04/21 00:12:15;;;;;;;5.17;2.40;;;;;;;;;;517209;28;1632;-82
2022/04/21 00:12:31;;;;;;;3.97;2.30;;;;;;;;;;515077;28;1452;-82
2022/04/21 00:12:47;;;;;;;3.20;2.40;;;;;;;;;;514323;28;1793;-83
2022/04/21 00:13:02;;;;;;;4.38;2.47;;;;;;;;;;514170;28;1372;-83
2022/04/21 00:13:18;;;;;;;4.20;2.40;;;;;;;;;;514166;28;1526;-82
2022/04/21 00:13:35;;;;;;;3.53;2.42;;;;;;;;;;513706;28;1641;-83
2022/04/21 00:13:50;;;;;;;4.35;2.40;;;;;;;;;;514006;28;1427;-83
2022/04/21 00:14:06;;;;;;;4.17;2.23;;;;;;;;;;511768;28;1465;-84
2022/04/21 00:14:21;;;;;;;3.67;2.20;;;;;;;;;;512155;28;1430;-83
2022/04/21 00:14:36;;;;;;;4.07;2.23;;;;;;;;;;512911;28;1565;-83
2022/04/21 00:14:52;;;;;;;4.00;2.37;;;;;;;;;;512833;28;1675;-82
2022/04/21 00:15:08;;;;;;;3.05;2.42;;;;;;;;;;512401;28;1759;-82
2022/04/21 00:15:25;;;;;;;2.50;2.30;;;;;;;;;;510906;29;1482;-83
2022/04/21 00:15:40;;;;;;;3.47;2.50;;;;;;;;;;512141;28;1899;-83
2022/04/21 00:15:56;;;;;;;4.30;2.73;;;;;;;;;;513753;28;1528;-82
2022/04/21 00:16:11;;;;;;;3.63;2.65;;;;;;;;;;512825;28;1451;-83
2022/04/21 00:16:26;;;;;;;3.30;2.67;;;;;;;;;;512819;28;1471;-83
2022/04/21 00:16:42;;;;;;;4.67;2.67;;;;;;;;;;513018;28;1629;-83
2022/04/21 00:16:57;;;;;;;5.28;2.60;;;;;;;;;;513074;28;1541;-83
2022/04/21 00:17:13;;;;;;;3.97;2.53;;;;;;;;;;511173;28;1524;-83
2022/04/21 00:17:28;;;;;;;4.80;2.55;;;;;;;;;;508905;29;1486;-83
2022/04/21 00:17:44;;;;;;;4.83;2.60;;;;;;;;;;508990;29;1872;-82
2022/04/21 00:18:00;;;;;;;3.92;2.45;;;;;;;;;;509021;29;1462;-83
2022/04/21 00:18:15;;;;;;;3.95;2.40;;;;;;;;;;510736;28;1389;-82
2022/04/21 00:18:30;;;;;;;3.47;2.50;;;;;;;;;;510721;28;1755;-84
2022/04/21 00:18:48;;;;;;;4.20;2.40;;;;;;;;;;509358;28;1363;-82
2022/04/21 00:19:03;;;;;;;3.83;2.30;;;;;;;;;;511233;28;1394;-83
2022/04/21 00:19:18;;;;;;;3.50;2.43;;;;;;;;;;513794;28;1537;-83
2022/04/21 00:19:38;;;;;;;3.25;2.40;;;;;;;;;;512734;28;1571;-82
2022/04/21 00:19:53;;;;;;;3.28;2.35;;;;;;;;;;512947;28;1418;-83
2022/04/21 00:20:09;;;;;;;4.43;2.40;;;;;;;;;;513288;28;1440;-82
2022/04/21 00:20:25;;;;;;;4.32;2.40;;;;;;;;;;513720;28;1372;-82
2022/04/21 00:20:40;;;;;;;3.03;2.38;;;;;;;;;;513951;28;1692;-82
2022/04/21 00:21:01;;;;;;;3.43;2.40;;;;;;;;;;515569;28;1527;-81
2022/04/21 00:21:16;;;;;;;3.72;2.45;;;;;;;;;;515069;28;1401;-82
2022/04/21 00:23:26;;;;;;;3.20;2.33;;;;;;;;;;516471;28;1731;-82
2022/04/21 00:23:28;;;;;;;3.80;2.40;;;;;;;;;;517087;28;1376;-83
2022/04/21 00:23:43;;;;;;;4.03;2.35;;;;;;;;;;514581;28;1520;-83
2022/04/21 00:23:58;;;;;;;3.73;2.20;;;;;;;;;;514947;28;1624;-84
2022/04/21 00:24:13;;;;;;;2.90;2.37;;;;;;;;;;515148;28;1460;-84
2022/04/21 00:24:30;;;;;;;3.80;2.58;;;;;;;;;;514840;28;1480;-83
2022/04/21 00:24:45;;;;;;;3.72;2.50;;;;;;;;;;513047;28;1894;-83
2022/04/21 00:25:01;;;;;;;3.67;2.37;;;;;;;;;;513304;28;1610;-83
2022/04/21 00:25:16;;;;;;;3.38;2.22;;;;;;;;;;512793;28;1453;-82
2022/04/21 00:25:32;;;;;;;3.23;2.30;;;;;;;;;;512713;28;1546;-82
2022/04/21 00:25:48;;;;;;;4.18;2.50;;;;;;;;;;513435;28;1831;-83
2022/04/21 00:26:04;;;;;;;3.95;2.60;;;;;;;;;;514902;28;1569;-82
2022/04/21 00:26:19;;;;;;;3.73;2.50;;;;;;;;;;514955;28;1468;-83
2022/04/21 00:26:34;;;;;;;3.57;2.37;;;;;;;;;;515468;28;1581;-82
2022/04/21 00:26:50;;;;;;;2.95;2.33;;;;;;;;;;516842;28;1503;-82
2022/04/21 00:27:05;;;;;;;3.03;2.33;;;;;;;;;;516658;28;1562;-82
2022/04/21 00:27:20;;;;;;;2.80;2.33;;;;;;;;;;517033;28;1434;-82
2022/04/21 00:27:40;;;;;;;3.05;2.30;;;;;;;;;;514853;28;1555;-82
2022/04/21 00:27:55;;;;;;;4.07;2.30;;;;;;;;;;514718;28;1697;-82
2022/04/21 00:28:11;;;;;;;3.58;2.22;;;;;;;;;;515212;28;1452;-82
2022/04/21 00:28:28;;;;;;;3.40;2.40;;;;;;;;;;512572;28;1468;-82
2022/04/21 00:28:43;;;;;;;3.80;2.50;;;;;;;;;;510292;28;1520;-82
2022/04/21 00:28:59;;;;;;;3.72;2.50;;;;;;;;;;512014;28;1468;-82
2022/04/21 00:29:14;;;;;;;3.70;2.50;;;;;;;;;;512428;28;1785;-82
2022/04/21 00:29:29;;;;;;;3.97;2.50;;;;;;;;;;514076;28;1452;-82
2022/04/21 00:29:45;;;;;;;4.70;2.60;;;;;;;;;;514758;28;1589;-83
2022/04/21 00:30:07;;;;;;;3.80;2.40;;;;;;;;;;514804;28;1540;-83
2022/04/21 00:30:23;;;;;;;3.65;2.15;;;;;;;;;;515782;28;1556;-82
2022/04/21 00:30:38;;;;;;;4.80;2.37;;;;;;;;;;515636;28;1487;-82
2022/04/21 00:30:54;;;;;;;4.28;2.65;;;;;;;;;;516993;28;1860;-83
2022/04/21 00:31:10;;;;;;;4.10;2.65;;;;;;;;;;516417;28;1428;-82
2022/04/21 00:31:25;;;;;;;4.40;2.40;;;;;;;;;;516229;28;1534;-82
2022/04/21 00:31:40;;;;;;;4.23;2.47;;;;;;;;;;516123;28;1456;-82
2022/04/21 00:31:56;;;;;;;3.63;2.60;;;;;;;;;;515956;28;1627;-82
2022/04/21 00:32:12;;;;;;;3.37;2.70;;;;;;;;;;515783;28;1494;-82
2022/04/21 00:32:27;;;;;;;3.25;2.70;;;;;;;;;;515869;28;1743;-82
2022/04/21 00:32:43;;;;;;;3.38;2.60;;;;;;;;;;517273;28;1606;-82
2022/04/21 00:32:59;;;;;;;3.75;2.58;;;;;;;;;;517032;28;1814;-82
2022/04/21 00:33:14;;;;;;;3.87;2.53;;;;;;;;;;516798;28;1503;-83
2022/04/21 00:33:31;;;;;;;3.63;2.60;;;;;;;;;;517103;28;1846;-83
2022/04/21 00:33:46;;;;;;;3.83;2.53;;;;;;;;;;516461;28;1663;-82
2022/04/21 00:34:02;;;;;;;4.53;2.80;;;;;;;;;;517067;28;1435;-82
2022/04/21 00:34:18;;;;;;;4.77;3.03;;;;;;;;;;517178;28;1657;-83
2022/04/21 00:34:34;;;;;;;4.32;2.67;;;;;;;;;;518902;28;1443;-83
2022/04/21 00:34:49;;;;;;;4.13;2.40;;;;;;;;;;518950;28;1427;-82
2022/04/21 00:35:06;;;;;;;3.67;2.50;;;;;;;;;;516059;28;1479;-83
2022/04/21 00:35:22;;;;;;;4.35;2.65;;;;;;;;;;514716;28;1556;-83
2022/04/21 00:35:37;;;;;;;3.90;2.80;;;;;;;;;;514233;28;1642;-83
2022/04/21 00:35:53;;;;;;;5.18;2.75;;;;;;;;;;514669;28;1559;-83
2022/04/21 00:36:09;;;;;;;6.40;2.80;;;;;;;;;;514705;28;1564;-83
2022/04/21 00:36:25;;;;;;;4.97;2.80;;;;;;;;;;514144;28;1646;-83
2022/04/21 00:36:40;;;;;;;4.67;2.87;;;;;;;;;;512922;28;1635;-83
2022/04/21 00:36:55;;;;;;;4.57;2.88;;;;;;;;;;513143;28;1426;-82
2022/04/21 00:37:11;;;;;;;3.93;2.70;;;;;;;;;;514656;28;1670;-83
2022/04/21 00:37:27;;;;;;;3.67;2.63;;;;;;;;;;515033;28;1507;-83
2022/04/21 00:37:50;;;;;;;3.65;2.67;;;;;;;;;;516783;28;1930;-83
2022/04/21 00:38:06;;;;;;;6.72;2.92;;;;;;;;;;516558;28;1551;-82
2022/04/21 00:38:21;;;;;;;7.95;3.00;;;;;;;;;;516515;28;1887;-83
2022/04/21 00:38:37;;;;;;;4.20;2.70;;;;;;;;;;514798;28;1571;-83
2022/04/21 00:38:52;;;;;;;3.53;2.60;;;;;;;;;;515053;28;1460;-82
2022/04/21 00:39:07;;;;;;;4.57;2.78;;;;;;;;;;514258;28;1638;-83
2022/04/21 00:39:23;;;;;;;5.40;3.00;;;;;;;;;;514931;28;1590;-82
2022/04/21 00:39:38;;;;;;;4.40;2.90;;;;;;;;;;514582;28;1727;-83
2022/04/21 00:39:54;;;;;;;4.10;2.63;;;;;;;;;;514924;28;1504;-82
2022/04/21 00:40:10;;;;;;;4.50;2.60;;;;;;;;;;516303;28;1538;-83
2022/04/21 00:40:29;;;;;;;4.05;2.63;;;;;;;;;;517200;28;1616;-82
2022/04/21 00:40:44;;;;;;;3.60;2.83;;;;;;;;;;516665;28;1466;-82
2022/04/21 00:40:59;;;;;;;4.72;3.13;;;;;;;;;;516755;28;1732;-82
2022/04/21 00:41:15;;;;;;;5.97;3.00;;;;;;;;;;515927;28;1586;-82
2022/04/21 00:41:30;;;;;;;5.23;2.80;;;;;;;;;;514630;28;1480;-82
2022/04/21 00:41:45;;;;;;;4.15;2.90;;;;;;;;;;514843;28;1448;-83
2022/04/21 00:42:02;;;;;;;4.23;3.00;;;;;;;;;;513809;28;1440;-84
2022/04/21 00:42:18;;;;;;;5.63;2.92;;;;;;;;;;512678;28;1429;-82
2022/04/21 00:42:33;;;;;;;4.67;2.80;;;;;;;;;;512975;28;1746;-83
2022/04/21 00:42:49;;;;;;;4.28;2.70;;;;;;;;;;514595;28;1692;-83
2022/04/21 00:43:05;;;;;;;5.32;3.00;;;;;;;;;;514984;28;1452;-82
2022/04/21 00:43:21;;;;;;;5.07;3.00;;;;;;;;;;514578;28;1684;-83
2022/04/21 00:43:36;;;;;;;5.43;3.00;;;;;;;;;;516354;28;1498;-83
2022/04/21 00:43:51;;;;;;;6.13;3.05;;;;;;;;;;516278;28;1677;-83
2022/04/21 00:44:07;;;;;;;5.23;2.93;;;;;;;;;;516670;28;1599;-82
2022/04/21 00:44:22;;;;;;;4.40;2.95;;;;;;;;;;515918;28;1700;-83
2022/04/21 00:44:38;;;;;;;4.03;3.00;;;;;;;;;;514328;28;1981;-82
2022/04/21 00:44:53;;;;;;;4.33;2.90;;;;;;;;;;514144;28;1554;-82
2022/04/21 00:45:09;;;;;;;4.40;2.80;;;;;;;;;;514831;28;1439;-82
2022/04/21 00:45:26;;;;;;;6.13;2.80;;;;;;;;;;512319;28;1644;-82
2022/04/21 00:45:41;;;;;;;6.45;2.95;;;;;;;;;;510777;28;2052;-83
2022/04/21 00:45:56;;;;;;;5.50;3.03;;;;;;;;;;511544;28;1854;-82
2022/04/21 00:46:19;;;;;;;6.33;2.83;;;;;;;;;;512937;28;1665;-82
2022/04/21 00:46:38;;;;;;;6.03;2.60;;;;;;;;;;514405;28;1921;-82
2022/04/21 00:46:55;;;;;;;4.78;2.60;;;;;;;;;;512758;28;1421;-82
2022/04/21 00:47:10;;;;;;;3.30;2.70;;;;;;;;;;513498;28;1529;-82
2022/04/21 00:47:26;;;;;;;4.47;2.70;;;;;;;;;;512254;28;1482;-82
2022/04/21 00:47:46;;;;;;;5.43;2.80;;;;;;;;;;514253;28;1532;-83
2022/04/21 00:48:04;;;;;;;3.90;2.80;;;;;;;;;;512819;28;1740;-82
2022/04/21 00:48:19;;;;;;;3.45;2.70;;;;;;;;;;512797;28;1669;-84
2022/04/21 00:48:34;;;;;;;3.38;2.80;;;;;;;;;;512493;28;1773;-82
2022/04/21 00:48:50;;;;;;;4.83;2.93;;;;;;;;;;514220;28;1858;-82
2022/04/21 00:49:06;;;;;;;6.53;2.83;;;;;;;;;;514709;28;1500;-82
2022/04/21 00:49:23;;;;;;;5.07;2.60;;;;;;;;;;516035;28;1511;-82
2022/04/21 00:49:39;;;;;;;3.70;2.80;;;;;;;;;;517305;28;1881;-83
2022/04/21 00:49:55;;;;;;;4.00;2.88;;;;;;;;;;517304;28;1516;-82
2022/04/21 00:50:25;;;;;;;3.60;2.80;;;;;;;;;;519086;28;1499;-82
2022/04/21 00:50:41;;;;;;;4.20;2.85;;;;;;;;;;518566;28;1468;-82
2022/04/21 00:50:57;;;;;;;3.53;2.70;;;;;;;;;;519282;28;1435;-83
2022/04/21 00:51:12;;;;;;;3.33;2.50;;;;;;;;;;518925;28;1502;-82
2022/04/21 00:51:28;;;;;;;3.17;2.50;;;;;;;;;;518959;28;1546;-83
2022/04/21 00:51:43;;;;;;;4.00;2.73;;;;;;;;;;519513;28;1380;-82
2022/04/21 00:52:00;;;;;;;3.75;2.60;;;;;;;;;;516789;28;1634;-82
2022/04/21 00:52:15;;;;;;;3.25;2.58;;;;;;;;;;517371;28;1689;-82
2022/04/21 00:52:31;;;;;;;4.30;2.90;;;;;;;;;;517280;28;1503;-82
2022/04/21 00:52:46;;;;;;;4.43;2.85;;;;;;;;;;517480;28;1461;-82
2022/04/21 00:53:03;;;;;;;4.73;2.87;;;;;;;;;;517440;28;1704;-83
2022/04/21 00:53:19;;;;;;;5.22;2.90;;;;;;;;;;517993;28;1490;-83
2022/04/21 00:53:35;;;;;;;5.28;2.80;;;;;;;;;;517395;28;1690;-83
2022/04/21 00:53:50;;;;;;;5.57;2.70;;;;;;;;;;518333;28;1638;-82
2022/04/21 00:54:05;;;;;;;4.57;2.80;;;;;;;;;;518828;28;1668;-83
2022/04/21 00:54:22;;;;;;;4.60;3.03;;;;;;;;;;518907;28;1950;-83
2022/04/21 00:54:37;;;;;;;4.20;3.05;;;;;;;;;;518758;28;1522;-82
2022/04/21 00:54:52;;;;;;;3.97;3.00;;;;;;;;;;518447;28;1748;-82
2022/04/21 00:55:09;;;;;;;4.50;3.00;;;;;;;;;;518832;28;1500;-83
2022/04/21 00:55:25;;;;;;;4.38;2.90;;;;;;;;;;516857;28;1544;-82
2022/04/21 00:55:41;;;;;;;3.97;2.83;;;;;;;;;;516834;28;1463;-82
2022/04/21 00:55:57;;;;;;;3.45;2.80;;;;;;;;;;516770;28;1862;-82
2022/04/21 00:56:12;;;;;;;4.20;2.80;;;;;;;;;;515880;28;1543;-82
2022/04/21 00:56:28;;;;;;;4.30;2.80;;;;;;;;;;516904;28;1750;-82
2022/04/21 00:56:44;;;;;;;3.55;2.70;;;;;;;;;;516439;28;1519;-82
2022/04/21 00:57:00;;;;;;;3.65;2.70;;;;;;;;;;516481;28;1475;-82
2022/04/21 00:57:16;;;;;;;4.82;2.83;;;;;;;;;;516569;28;1744;-82
2022/04/21 00:57:32;;;;;;;6.30;2.90;;;;;;;;;;517058;28;1439;-83
2022/04/21 00:57:48;;;;;;;4.90;2.83;;;;;;;;;;516566;28;1526;-83
2022/04/21 00:58:05;;;;;;;5.38;2.60;;;;;;;;;;516885;28;1460;-82
2022/04/21 00:58:20;;;;;;;5.93;2.70;;;;;;;;;;518392;28;1507;-82
2022/04/21 00:58:38;;;;;;;5.63;2.92;;;;;;;;;;517540;28;1696;-82
2022/04/21 00:58:55;;;;;;;6.22;2.97;;;;;;;;;;518580;28;1594;-82
2022/04/21 00:59:12;;;;;;;4.93;2.88;;;;;;;;;;516230;28;1478;-83
2022/04/21 00:59:27;;;;;;;3.90;2.85;;;;;;;;;;515658;28;1472;-82
2022/04/21 00:59:45;;;;;;;4.00;2.70;;;;;;;;;;515343;28;2003;-83
2022/04/21 01:00:03;;;;;;;3.95;2.80;;;;;;;;;;515115;28;1421;-83
2022/04/21 01:00:19;;;;;;;3.97;2.80;;;;;;;;;;515137;28;1591;-83
2022/04/21 01:00:35;;;;;;;3.88;2.90;;;;;;;;;;516850;28;1432;-83
2022/04/21 01:00:50;;;;;;;3.80;2.85;;;;;;;;;;515518;28;1504;-83
2022/04/21 01:02:46;;;;;;;4.03;2.90;;;;;;;;;;514951;28;1622;-83
2022/04/21 01:03:00;;;;;;;3.33;2.80;;;;;;;;;;519628;28;1406;-82
2022/04/21 01:03:15;;;;;;;4.03;2.70;;;;;;;;;;517001;28;1704;-82
2022/04/21 01:03:15;;;;;;;3.67;2.70;;;;;;;;;;517050;28;1604;-82
2022/04/21 01:03:31;;;;;;;3.67;2.50;;;;;;;;;;516547;28;1846;-82
2022/04/21 01:03:47;;;;;;;4.57;2.60;;;;;;;;;;516821;28;1475;-83
2022/04/21 01:04:03;;;;;;;3.88;2.47;;;;;;;;;;517042;28;1672;-82
2022/04/21 01:04:19;;;;;;;3.20;2.58;;;;;;;;;;516778;28;1614;-84
2022/04/21 01:04:34;;;;;;;3.80;2.80;;;;;;;;;;516796;28;1942;-83
2022/04/21 01:04:51;;;;;;;3.37;2.60;;;;;;;;;;516988;28;1690;-83
2022/04/21 01:05:08;;;;;;;3.40;2.58;;;;;;;;;;517200;28;1469;-82
2022/04/21 01:05:28;;;;;;;4.38;2.75;;;;;;;;;;517935;28;1572;-82
2022/04/21 01:05:47;;;;;;;4.30;2.70;;;;;;;;;;517957;28;1407;-82
2022/04/21 01:06:03;;;;;;;4.70;2.70;;;;;;;;;;518269;28;1516;-83
2022/04/21 01:06:19;;;;;;;4.22;2.72;;;;;;;;;;518363;28;1525;-83
2022/04/21 01:06:34;;;;;;;4.93;3.05;;;;;;;;;;519322;28;1379;-82
2022/04/21 01:06:52;;;;;;;5.33;3.10;;;;;;;;;;516462;28;1677;-82
2022/04/21 01:07:10;;;;;;;3.80;2.72;;;;;;;;;;516281;28;1717;-82
2022/04/21 01:07:26;;;;;;;5.88;2.80;;;;;;;;;;516582;28;2050;-82
2022/04/21 01:07:41;;;;;;;5.57;2.83;;;;;;;;;;516047;28;1662;-82
2022/04/21 01:08:07;;;;;;;3.53;2.83;;;;;;;;;;514482;28;1551;-82
2022/04/21 01:08:23;;;;;;;3.95;2.75;;;;;;;;;;514566;28;1479;-82
2022/04/21 01:08:39;;;;;;;3.67;2.70;;;;;;;;;;514147;28;1740;-82
2022/04/21 01:08:55;;;;;;;3.85;2.60;;;;;;;;;;514335;28;1405;-82
2022/04/21 01:09:10;;;;;;;4.17;2.73;;;;;;;;;;514522;28;1665;-82
2022/04/21 01:09:25;;;;;;;3.63;2.97;;;;;;;;;;513955;28;1513;-82
2022/04/21 01:09:41;;;;;;;3.80;2.97;;;;;;;;;;512415;28;1647;-82
2022/04/21 01:09:56;;;;;;;5.00;2.90;;;;;;;;;;513900;28;1497;-83
2022/04/21 01:10:13;;;;;;;4.85;2.90;;;;;;;;;;515279;28;1595;-82
2022/04/21 01:10:30;;;;;;;3.83;2.80;;;;;;;;;;516764;28;1363;-83
2022/04/21 01:10:47;;;;;;;3.90;2.85;;;;;;;;;;517091;28;1476;-82
2022/04/21 01:11:02;;;;;;;3.15;2.70;;;;;;;;;;514825;28;1688;-82
2022/04/21 01:11:18;;;;;;;3.47;2.70;;;;;;;;;;514986;28;1475;-83
2022/04/21 01:11:33;;;;;;;3.90;2.80;;;;;;;;;;515525;28;1752;-82
2022/04/21 01:11:50;;;;;;;3.60;2.70;;;;;;;;;;514928;28;1461;-82
2022/04/21 01:12:09;;;;;;;3.83;2.97;;;;;;;;;;514909;28;1421;-82
2022/04/21 01:12:24;;;;;;;3.75;2.90;;;;;;;;;;514861;28;1562;-83
2022/04/21 01:12:41;;;;;;;4.45;2.95;;;;;;;;;;515157;28;1480;-83
2022/04/21 01:13:04;;;;;;;5.55;3.10;;;;;;;;;;514705;28;1711;-83
2022/04/21 01:13:19;;;;;;;4.93;3.03;;;;;;;;;;514946;28;1571;-82
2022/04/21 01:13:35;;;;;;;4.33;3.00;;;;;;;;;;514623;28;1448;-82
2022/04/21 01:13:51;;;;;;;5.00;3.13;;;;;;;;;;515131;28;1458;-82
2022/04/21 01:14:07;;;;;;;4.85;3.00;;;;;;;;;;516421;28;1669;-82
2022/04/21 01:14:23;;;;;;;4.00;3.00;;;;;;;;;;517061;28;1419;-82
2022/04/21 01:14:39;;;;;;;3.78;2.97;;;;;;;;;;516253;28;1671;-83
2022/04/21 01:14:54;;;;;;;5.00;2.95;;;;;;;;;;516575;28;1500;-83
2022/04/21 01:15:10;;;;;;;5.70;3.10;;;;;;;;;;516827;28;1802;-83
2022/04/21 01:15:25;;;;;;;4.68;3.00;;;;;;;;;;517216;28;1485;-82
2022/04/21 01:15:41;;;;;;;3.78;2.63;;;;;;;;;;517552;28;1530;-83
2022/04/21 01:15:56;;;;;;;4.73;2.80;;;;;;;;;;519697;28;1439;-82
2022/04/21 01:16:12;;;;;;;4.85;3.00;;;;;;;;;;518624;28;1494;-83
2022/04/21 01:16:27;;;;;;;4.20;2.83;;;;;;;;;;516709;28;1773;-83
2022/04/21 01:16:43;;;;;;;4.37;2.70;;;;;;;;;;516434;28;1724;-82
2022/04/21 01:17:01;;;;;;;3.85;2.80;;;;;;;;;;516922;28;1499;-82
2022/04/21 01:17:16;;;;;;;3.63;3.00;;;;;;;;;;514807;28;1452;-83
2022/04/21 01:17:36;;;;;;;3.20;2.90;;;;;;;;;;514673;28;1733;-82
2022/04/21 01:17:53;;;;;;;3.10;2.60;;;;;;;;;;514603;28;1643;-82
2022/04/21 01:18:09;;;;;;;4.50;2.70;;;;;;;;;;513191;28;1552;-82
2022/04/21 01:18:27;;;;;;;4.32;2.88;;;;;;;;;;515613;28;1480;-82
2022/04/21 01:18:43;;;;;;;3.15;2.80;;;;;;;;;;515939;28;1448;-83
2022/04/21 01:18:59;;;;;;;3.33;2.70;;;;;;;;;;515456;28;1571;-82
2022/04/21 01:19:14;;;;;;;4.05;2.80;;;;;;;;;;516347;28;1508;-83
2022/04/21 01:19:30;;;;;;;3.97;2.90;;;;;;;;;;516753;28;1723;-82
2022/04/21 01:19:46;;;;;;;3.42;2.80;;;;;;;;;;516753;28;1468;-82
2022/04/21 01:20:02;;;;;;;3.97;2.70;;;;;;;;;;517089;28;1577;-82
2022/04/21 01:20:22;;;;;;;3.28;2.70;;;;;;;;;;518089;28;1580;-82
2022/04/21 01:20:38;;;;;;;3.55;2.75;;;;;;;;;;518069;28;1442;-82
2022/04/21 01:20:53;;;;;;;3.30;2.70;;;;;;;;;;516147;28;1785;-82
2022/04/21 01:21:08;;;;;;;3.03;2.70;;;;;;;;;;516532;28;1566;-82
2022/04/21 01:21:24;;;;;;;3.57;2.80;;;;;;;;;;516650;28;1459;-82
2022/04/21 01:21:40;;;;;;;3.97;2.80;;;;;;;;;;516442;28;1612;-82
2022/04/21 01:21:55;;;;;;;4.57;2.78;;;;;;;;;;515574;28;1495;-82
2022/04/21 01:22:11;;;;;;;5.23;2.90;;;;;;;;;;514651;28;1563;-83
2022/04/21 01:22:27;;;;;;;4.43;2.90;;;;;;;;;;514905;28;1461;-82
2022/04/21 01:22:42;;;;;;;3.15;2.60;;;;;;;;;;514667;28;1495;-82
2022/04/21 01:22:58;;;;;;;3.83;2.80;;;;;;;;;;514950;28;1421;-82
2022/04/21 01:23:13;;;;;;;4.97;3.00;;;;;;;;;;516740;28;1427;-82
2022/04/21 01:23:28;;;;;;;5.40;2.97;;;;;;;;;;514729;28;1492;-83
2022/04/21 01:23:44;;;;;;;5.07;3.00;;;;;;;;;;513273;28;1595;-83
2022/04/21 01:23:59;;;;;;;4.30;2.90;;;;;;;;;;514775;28;1453;-82
2022/04/21 01:24:14;;;;;;;4.28;2.75;;;;;;;;;;516702;28;1704;-82
2022/04/21 01:24:30;;;;;;;4.20;2.70;;;;;;;;;;519033;28;1503;-82
2022/04/21 01:24:46;;;;;;;4.43;2.70;;;;;;;;;;518745;28;1922;-82
2022/04/21 01:25:02;;;;;;;5.88;2.80;;;;;;;;;;518651;28;1435;-82
2022/04/21 01:25:19;;;;;;;5.07;2.80;;;;;;;;;;519162;28;1462;-82
2022/04/21 01:25:41;;;;;;;3.63;2.70;;;;;;;;;;518838;28;1765;-83
2022/04/21 01:25:56;;;;;;;3.03;2.72;;;;;;;;;;516726;28;1415;-82
2022/04/21 01:26:12;;;;;;;2.92;2.63;;;;;;;;;;516637;28;1609;-83
2022/04/21 01:26:35;;;;;;;3.03;2.60;;;;;;;;;;516663;28;1531;-82
2022/04/21 01:26:50;;;;;;;3.60;2.78;;;;;;;;;;516330;28;1529;-82
2022/04/21 01:27:06;;;;;;;3.50;2.80;;;;;;;;;;516470;28;1581;-83
2022/04/21 01:27:23;;;;;;;3.10;2.70;;;;;;;;;;516510;28;1491;-82
2022/04/21 01:27:39;;;;;;;3.33;2.80;;;;;;;;;;514550;28;1575;-82
2022/04/21 01:27:57;;;;;;;3.92;2.85;;;;;;;;;;512527;28;1488;-82
2022/04/21 01:28:12;;;;;;;4.30;2.90;;;;;;;;;;512752;28;1761;-82
2022/04/21 01:28:30;;;;;;;3.73;2.90;;;;;;;;;;512795;28;1670;-82
2022/04/21 01:28:47;;;;;;;4.18;2.90;;;;;;;;;;512548;28;1612;-83
2022/04/21 01:29:03;;;;;;;4.53;2.90;;;;;;;;;;512907;28;1497;-82
2022/04/21 01:29:18;;;;;;;3.55;2.83;;;;;;;;;;514250;28;1751;-82
2022/04/21 01:29:33;;;;;;;3.83;2.70;;;;;;;;;;516256;28;1582;-82
2022/04/21 01:29:50;;;;;;;3.80;2.67;;;;;;;;;;517726;28;1564;-82
2022/04/21 01:30:08;;;;;;;3.72;2.70;;;;;;;;;;518455;28;1579;-82
2022/04/21 01:30:23;;;;;;;4.20;2.90;;;;;;;;;;517607;28;1494;-83
2022/04/21 01:30:38;;;;;;;4.17;3.00;;;;;;;;;;517715;28;1628;-83
2022/04/21 01:30:57;;;;;;;3.92;3.00;;;;;;;;;;517776;28;1965;-82
2022/04/21 01:31:13;;;;;;;4.20;2.90;;;;;;;;;;518140;28;1569;-83
2022/04/21 01:31:29;;;;;;;4.38;3.00;;;;;;;;;;517983;28;1456;-82
2022/04/21 01:31:45;;;;;;;4.53;3.08;;;;;;;;;;516151;28;1558;-83
2022/04/21 01:32:00;;;;;;;4.40;2.80;;;;;;;;;;516523;28;1467;-82
2022/04/21 01:32:15;;;;;;;3.75;2.72;;;;;;;;;;516155;28;1455;-82
2022/04/21 01:32:35;;;;;;;3.20;2.53;;;;;;;;;;516752;28;1568;-82
2022/04/21 01:32:51;;;;;;;4.22;2.78;;;;;;;;;;514360;28;1477;-82
2022/04/21 01:33:07;;;;;;;4.13;2.90;;;;;;;;;;513142;28;1661;-82
2022/04/21 01:33:24;;;;;;;4.45;2.70;;;;;;;;;;512501;28;2062;-82
2022/04/21 01:33:40;;;;;;;4.63;2.58;;;;;;;;;;513802;28;1433;-82
2022/04/21 01:33:56;;;;;;;4.63;2.67;;;;;;;;;;515687;28;1608;-82
2022/04/21 01:34:11;;;;;;;4.20;2.70;;;;;;;;;;516543;28;1451;-82
2022/04/21 01:34:26;;;;;;;3.85;2.60;;;;;;;;;;516677;28;1820;-82
2022/04/21 01:34:42;;;;;;;4.27;2.53;;;;;;;;;;517781;28;1490;-82
2022/04/21 01:34:57;;;;;;;4.40;2.60;;;;;;;;;;518881;28;1536;-83
2022/04/21 01:35:13;;;;;;;3.50;2.70;;;;;;;;;;516859;28;1400;-82
2022/04/21 01:35:28;;;;;;;3.80;2.70;;;;;;;;;;516673;28;1509;-84
2022/04/21 01:35:43;;;;;;;3.80;2.60;;;;;;;;;;516988;28;1455;-82
2022/04/21 01:35:59;;;;;;;3.87;2.63;;;;;;;;;;514751;28;1759;-82
2022/04/21 01:36:14;;;;;;;4.50;2.60;;;;;;;;;;514892;28;1443;-82
2022/04/21 01:36:29;;;;;;;4.63;2.47;;;;;;;;;;514809;28;1606;-82
2022/04/21 01:41:19;;;;;;;3.83;2.70;;;;;;;;;;518547;28;1431;-82
2022/04/21 01:41:35;;;;;;;4.32;2.58;;;;;;;;;;516439;28;1468;-82
2022/04/21 01:41:50;;;;;;;3.85;2.72;;;;;;;;;;516584;28;1577;-82
2022/04/21 01:42:06;;;;;;;3.63;2.60;;;;;;;;;;516768;28;1372;-82
2022/04/21 01:42:22;;;;;;;4.15;2.40;;;;;;;;;;514705;28;2019;-82
2022/04/21 01:42:37;;;;;;;4.03;2.40;;;;;;;;;;514958;28;1504;-82
2022/04/21 01:42:52;;;;;;;4.00;2.50;;;;;;;;;;511446;28;1607;-82
2022/04/21 01:43:08;;;;;;;4.13;2.70;;;;;;;;;;512191;28;1469;-82
2022/04/21 01:43:23;;;;;;;3.70;2.60;;;;;;;;;;512035;28;1690;-82
2022/04/21 01:43:41;;;;;;;4.23;2.50;;;;;;;;;;512780;28;1501;-82
2022/04/21 01:43:57;;;;;;;4.63;2.55;;;;;;;;;;512793;28;1943;-82
2022/04/21 01:44:12;;;;;;;3.70;2.47;;;;;;;;;;512522;28;1703;-82
2022/04/21 01:44:27;;;;;;;4.07;2.50;;;;;;;;;;514496;28;1464;-82
2022/04/21 01:44:43;;;;;;;3.80;2.50;;;;;;;;;;514631;28;2041;-82
2022/04/21 01:44:58;;;;;;;3.80;2.30;;;;;;;;;;516823;28;1599;-82
2022/04/21 01:45:14;;;;;;;4.33;2.33;;;;;;;;;;516213;28;1534;-82
2022/04/21 01:45:29;;;;;;;3.60;2.40;;;;;;;;;;517340;28;1455;-82
2022/04/21 01:45:45;;;;;;;3.57;2.50;;;;;;;;;;518877;28;1537;-83
2022/04/21 01:46:00;;;;;;;3.80;2.50;;;;;;;;;;518667;28;1509;-82
2022/04/21 01:46:15;;;;;;;4.13;2.40;;;;;;;;;;516506;28;1625;-82
2022/04/21 01:46:31;;;;;;;4.10;2.67;;;;;;;;;;516666;28;2029;-82
2022/04/21 01:46:48;;;;;;;4.13;2.73;;;;;;;;;;516959;28;1530;-82
2022/04/21 01:47:04;;;;;;;3.88;2.60;;;;;;;;;;516388;28;1389;-82